sensor_id;sensor_type;location;lat;lon;timestamp;temperature;humidity
15967;DHT22;15175;48.154;11.534;2023-04-03T00:00:11;5.10;99.90
15967;DHT22;15175;48.154;11.534;2023-04-03T00:02:39;5.10;99.90
15967;DHT22;15175;48.154;11.534;2023-04-03T00:05:07;5.10;99.90
15967;DHT22;15175;48.154;11.534;2023-04-03T00:07:35;5.10;99.90
15967;DHT22;15175;48.154;11.534;2023-04-03T00:10:03;5.10;99.90
15967;DHT22;15175;48.154;11.534;2023-04-03T00:12:30;5.10;99.90
15967;DHT22;15175;48.154;11.534;2023-04-03T00:14:57;5.10;99.90
15967;DHT22;15175;48.154;11.534;2023-04-03T00:17:25;5.10;99.90
15967;DHT22;15175;48.154;11.534;2023-04-03T00:19:52;5.10;99.90
15967;DHT22;15175;48.154;11.534;2023-04-03T00:22:19;5.10;99.90
15967;DHT22;15175;48.154;11.534;2023-04-03T00:24:47;5.10;99.90
15967;DHT22;15175;48.154;11.534;2023-04-03T00:27:14;5.00;99.90
15967;DHT22;15175;48.154;11.534;2023-04-03T00:29:42;5.00;99.90
15967;DHT22;15175;48.154;11.534;2023-04-03T00:32:09;5.00;99.90
15967;DHT22;15175;48.154;11.534;2023-04-03T00:34:36;5.00;99.90
15967;DHT22;15175;48.154;11.534;2023-04-03T00:37:03;5.00;99.90
15967;DHT22;15175;48.154;11.534;2023-04-03T00:39:30;5.00;99.90
15967;DHT22;15175;48.154;11.534;2023-04-03T00:41:59;5.00;99.90
15967;DHT22;15175;48.154;11.534;2023-04-03T00:47:27;5.00;99.90
15967;DHT22;15175;48.154;11.534;2023-04-03T00:49:54;5.00;99.90
15967;DHT22;15175;48.154;11.534;2023-04-03T00:52:25;5.00;99.90
15967;DHT22;15175;48.154;11.534;2023-04-03T00:54:57;5.10;99.90
15967;DHT22;15175;48.154;11.534;2023-04-03T00:57:28;5.10;99.90
15967;DHT22;15175;48.154;11.534;2023-04-03T01:00:00;5.10;99.90
15967;DHT22;15175;48.154;11.534;2023-04-03T01:02:28;5.10;99.90
15967;DHT22;15175;48.154;11.534;2023-04-03T01:04:55;5.20;99.90
15967;DHT22;15175;48.154;11.534;2023-04-03T01:07:26;5.10;99.90
15967;DHT22;15175;48.154;11.534;2023-04-03T01:09:57;5.20;99.90
15967;DHT22;15175;48.154;11.534;2023-04-03T01:12:26;5.20;99.90
15967;DHT22;15175;48.154;11.534;2023-04-03T01:14:56;5.20;99.90
15967;DHT22;15175;48.154;11.534;2023-04-03T01:17:30;5.20;99.90
15967;DHT22;15175;48.154;11.534;2023-04-03T01:23:16;5.20;99.90
15967;DHT22;15175;48.154;11.534;2023-04-03T01:25:46;5.10;99.90
15967;DHT22;15175;48.154;11.534;2023-04-03T01:28:17;5.20;99.90
15967;DHT22;15175;48.154;11.534;2023-04-03T01:30:50;5.10;99.90
15967;DHT22;15175;48.154;11.534;2023-04-03T01:33:19;5.20;99.90
15967;DHT22;15175;48.154;11.534;2023-04-03T01:35:47;5.10;99.90
15967;DHT22;15175;48.154;11.534;2023-04-03T01:38:14;5.10;99.90
15967;DHT22;15175;48.154;11.534;2023-04-03T01:40:42;5.10;99.90
15967;DHT22;15175;48.154;11.534;2023-04-03T01:43:09;4.90;99.90
15967;DHT22;15175;48.154;11.534;2023-04-03T01:45:36;4.90;99.90
15967;DHT22;15175;48.154;11.534;2023-04-03T01:48:04;4.90;99.90
15967;DHT22;15175;48.154;11.534;2023-04-03T01:50:32;4.90;99.90
15967;DHT22;15175;48.154;11.534;2023-04-03T01:53:00;4.80;99.90
15967;DHT22;15175;48.154;11.534;2023-04-03T01:55:27;4.80;99.90
15967;DHT22;15175;48.154;11.534;2023-04-03T01:57:54;4.80;99.90
15967;DHT22;15175;48.154;11.534;2023-04-03T02:00:22;4.80;99.90
15967;DHT22;15175;48.154;11.534;2023-04-03T02:02:49;4.80;99.90
15967;DHT22;15175;48.154;11.534;2023-04-03T02:05:16;4.80;99.90
15967;DHT22;15175;48.154;11.534;2023-04-03T02:07:45;4.60;99.90
15967;DHT22;15175;48.154;11.534;2023-04-03T02:10:12;4.70;99.90
15967;DHT22;15175;48.154;11.534;2023-04-03T02:12:39;4.70;99.90
15967;DHT22;15175;48.154;11.534;2023-04-03T02:15:07;4.70;99.90
15967;DHT22;15175;48.154;11.534;2023-04-03T02:17:35;4.60;99.90
15967;DHT22;15175;48.154;11.534;2023-04-03T02:20:02;4.60;99.90
15967;DHT22;15175;48.154;11.534;2023-04-03T02:22:30;4.70;99.90
15967;DHT22;15175;48.154;11.534;2023-04-03T02:24:58;4.60;99.90
15967;DHT22;15175;48.154;11.534;2023-04-03T02:27:26;4.70;99.90
15967;DHT22;15175;48.154;11.534;2023-04-03T02:29:53;4.70;99.90
15967;DHT22;15175;48.154;11.534;2023-04-03T02:32:21;4.80;99.90
15967;DHT22;15175;48.154;11.534;2023-04-03T02:34:48;4.80;99.90
15967;DHT22;15175;48.154;11.534;2023-04-03T02:37:15;4.80;99.90
15967;DHT22;15175;48.154;11.534;2023-04-03T02:39:44;4.90;99.90
15967;DHT22;15175;48.154;11.534;2023-04-03T02:42:13;4.90;99.90
15967;DHT22;15175;48.154;11.534;2023-04-03T02:44:40;4.90;99.90
15967;DHT22;15175;48.154;11.534;2023-04-03T02:47:09;5.00;99.90
15967;DHT22;15175;48.154;11.534;2023-04-03T02:49:36;4.90;99.90
15967;DHT22;15175;48.154;11.534;2023-04-03T02:52:03;5.00;99.90
15967;DHT22;15175;48.154;11.534;2023-04-03T02:54:30;5.00;99.90
15967;DHT22;15175;48.154;11.534;2023-04-03T02:57:01;5.00;99.90
15967;DHT22;15175;48.154;11.534;2023-04-03T02:59:30;4.90;99.90
15967;DHT22;15175;48.154;11.534;2023-04-03T03:01:57;4.90;99.90
15967;DHT22;15175;48.154;11.534;2023-04-03T03:04:24;4.70;99.90
15967;DHT22;15175;48.154;11.534;2023-04-03T03:06:51;4.70;99.90
15967;DHT22;15175;48.154;11.534;2023-04-03T03:09:18;4.70;99.90
15967;DHT22;15175;48.154;11.534;2023-04-03T03:11:45;4.70;99.90
15967;DHT22;15175;48.154;11.534;2023-04-03T03:14:12;4.70;99.90
15967;DHT22;15175;48.154;11.534;2023-04-03T03:16:40;4.60;99.90
15967;DHT22;15175;48.154;11.534;2023-04-03T03:19:08;4.70;99.90
15967;DHT22;15175;48.154;11.534;2023-04-03T03:21:36;4.70;99.90
15967;DHT22;15175;48.154;11.534;2023-04-03T03:24:03;4.60;99.90
15967;DHT22;15175;48.154;11.534;2023-04-03T03:26:32;4.60;99.90
15967;DHT22;15175;48.154;11.534;2023-04-03T03:29:01;4.60;99.90
15967;DHT22;15175;48.154;11.534;2023-04-03T03:31:29;4.60;99.90
15967;DHT22;15175;48.154;11.534;2023-04-03T03:33:58;4.60;99.90
15967;DHT22;15175;48.154;11.534;2023-04-03T03:36:25;4.60;99.90
15967;DHT22;15175;48.154;11.534;2023-04-03T03:38:52;4.60;99.90
15967;DHT22;15175;48.154;11.534;2023-04-03T03:41:19;4.60;99.90
15967;DHT22;15175;48.154;11.534;2023-04-03T03:43:47;4.60;99.90
15967;DHT22;15175;48.154;11.534;2023-04-03T03:46:15;4.60;99.90
15967;DHT22;15175;48.154;11.534;2023-04-03T03:48:43;4.60;99.90
15967;DHT22;15175;48.154;11.534;2023-04-03T03:51:12;4.60;99.90
15967;DHT22;15175;48.154;11.534;2023-04-03T03:53:39;4.60;99.90
15967;DHT22;15175;48.154;11.534;2023-04-03T03:56:11;4.60;99.90
15967;DHT22;15175;48.154;11.534;2023-04-03T03:58:40;4.60;99.90
15967;DHT22;15175;48.154;11.534;2023-04-03T04:01:07;4.60;99.90
15967;DHT22;15175;48.154;11.534;2023-04-03T04:03:40;4.60;99.90
15967;DHT22;15175;48.154;11.534;2023-04-03T04:06:09;4.70;99.90
15967;DHT22;15175;48.154;11.534;2023-04-03T04:08:38;4.70;99.90
15967;DHT22;15175;48.154;11.534;2023-04-03T04:11:08;4.70;99.90
15967;DHT22;15175;48.154;11.534;2023-04-03T04:13:36;4.70;99.90
15967;DHT22;15175;48.154;11.534;2023-04-03T04:16:05;4.80;99.90
15967;DHT22;15175;48.154;11.534;2023-04-03T04:18:33;4.80;99.90
15967;DHT22;15175;48.154;11.534;2023-04-03T04:21:00;4.70;99.90
15967;DHT22;15175;48.154;11.534;2023-04-03T04:23:27;4.70;99.90
15967;DHT22;15175;48.154;11.534;2023-04-03T04:25:56;4.70;99.90
15967;DHT22;15175;48.154;11.534;2023-04-03T04:28:23;4.60;99.90
15967;DHT22;15175;48.154;11.534;2023-04-03T04:30:53;4.50;99.90
15967;DHT22;15175;48.154;11.534;2023-04-03T04:33:24;4.50;99.90
15967;DHT22;15175;48.154;11.534;2023-04-03T04:35:51;4.50;99.90
15967;DHT22;15175;48.154;11.534;2023-04-03T04:38:20;4.60;99.90
15967;DHT22;15175;48.154;11.534;2023-04-03T04:40:48;4.60;99.90
15967;DHT22;15175;48.154;11.534;2023-04-03T04:43:16;4.60;99.90
15967;DHT22;15175;48.154;11.534;2023-04-03T04:45:46;4.60;99.90
15967;DHT22;15175;48.154;11.534;2023-04-03T04:48:16;4.60;99.90
15967;DHT22;15175;48.154;11.534;2023-04-03T04:50:43;4.60;99.90
15967;DHT22;15175;48.154;11.534;2023-04-03T04:53:10;4.50;99.90
15967;DHT22;15175;48.154;11.534;2023-04-03T04:55:37;4.60;99.90
15967;DHT22;15175;48.154;11.534;2023-04-03T04:58:05;4.60;99.90
15967;DHT22;15175;48.154;11.534;2023-04-03T05:00:33;4.60;99.90
15967;DHT22;15175;48.154;11.534;2023-04-03T05:03:01;4.60;99.90
15967;DHT22;15175;48.154;11.534;2023-04-03T05:05:28;4.60;99.90
15967;DHT22;15175;48.154;11.534;2023-04-03T05:07:55;4.60;99.90
15967;DHT22;15175;48.154;11.534;2023-04-03T05:10:23;4.60;99.90
15967;DHT22;15175;48.154;11.534;2023-04-03T05:12:50;4.70;99.90
15967;DHT22;15175;48.154;11.534;2023-04-03T05:15:17;4.70;99.90
15967;DHT22;15175;48.154;11.534;2023-04-03T05:17:45;4.70;99.90
15967;DHT22;15175;48.154;11.534;2023-04-03T05:20:14;4.70;99.90
15967;DHT22;15175;48.154;11.534;2023-04-03T05:22:43;4.70;99.90
15967;DHT22;15175;48.154;11.534;2023-04-03T05:25:11;4.60;99.90
15967;DHT22;15175;48.154;11.534;2023-04-03T05:27:41;4.70;99.90
15967;DHT22;15175;48.154;11.534;2023-04-03T05:30:09;4.60;99.90
15967;DHT22;15175;48.154;11.534;2023-04-03T05:32:38;4.50;99.90
15967;DHT22;15175;48.154;11.534;2023-04-03T05:35:18;4.50;99.90
15967;DHT22;15175;48.154;11.534;2023-04-03T05:37:48;4.60;99.90
15967;DHT22;15175;48.154;11.534;2023-04-03T05:40:16;4.70;99.90
15967;DHT22;15175;48.154;11.534;2023-04-03T05:42:46;4.60;99.90
15967;DHT22;15175;48.154;11.534;2023-04-03T05:45:14;4.60;99.90
15967;DHT22;15175;48.154;11.534;2023-04-03T05:47:41;4.60;99.90
15967;DHT22;15175;48.154;11.534;2023-04-03T05:50:09;4.60;99.90
15967;DHT22;15175;48.154;11.534;2023-04-03T05:52:40;4.70;99.90
15967;DHT22;15175;48.154;11.534;2023-04-03T05:55:08;4.60;99.90
15967;DHT22;15175;48.154;11.534;2023-04-03T05:57:36;4.70;99.90
15967;DHT22;15175;48.154;11.534;2023-04-03T06:00:05;4.70;99.90
15967;DHT22;15175;48.154;11.534;2023-04-03T06:02:39;4.70;99.90
15967;DHT22;15175;48.154;11.534;2023-04-03T06:05:11;4.70;99.90
15967;DHT22;15175;48.154;11.534;2023-04-03T06:07:40;4.70;99.90
15967;DHT22;15175;48.154;11.534;2023-04-03T06:10:11;4.70;99.90
15967;DHT22;15175;48.154;11.534;2023-04-03T06:12:38;4.80;99.90
15967;DHT22;15175;48.154;11.534;2023-04-03T06:15:07;4.70;99.90
15967;DHT22;15175;48.154;11.534;2023-04-03T06:17:35;4.70;99.90
15967;DHT22;15175;48.154;11.534;2023-04-03T06:20:04;4.70;99.90
15967;DHT22;15175;48.154;11.534;2023-04-03T06:22:31;4.70;99.90
15967;DHT22;15175;48.154;11.534;2023-04-03T06:24:59;4.70;99.90
15967;DHT22;15175;48.154;11.534;2023-04-03T06:27:27;4.60;99.90
15967;DHT22;15175;48.154;11.534;2023-04-03T06:29:54;4.60;99.90
15967;DHT22;15175;48.154;11.534;2023-04-03T06:32:21;4.70;99.90
15967;DHT22;15175;48.154;11.534;2023-04-03T06:34:48;4.70;99.90
15967;DHT22;15175;48.154;11.534;2023-04-03T06:37:19;4.80;99.90
15967;DHT22;15175;48.154;11.534;2023-04-03T06:39:46;4.80;99.90
15967;DHT22;15175;48.154;11.534;2023-04-03T06:42:14;4.70;99.90
15967;DHT22;15175;48.154;11.534;2023-04-03T06:44:52;4.80;99.90
15967;DHT22;15175;48.154;11.534;2023-04-03T06:47:19;4.80;99.90
15967;DHT22;15175;48.154;11.534;2023-04-03T06:49:46;4.80;99.90
15967;DHT22;15175;48.154;11.534;2023-04-03T06:52:14;4.80;99.90
15967;DHT22;15175;48.154;11.534;2023-04-03T06:54:41;4.80;99.90
15967;DHT22;15175;48.154;11.534;2023-04-03T06:57:08;4.80;99.90
15967;DHT22;15175;48.154;11.534;2023-04-03T06:59:36;4.90;99.90
15967;DHT22;15175;48.154;11.534;2023-04-03T07:02:04;4.80;99.90
15967;DHT22;15175;48.154;11.534;2023-04-03T07:04:31;4.90;99.90
15967;DHT22;15175;48.154;11.534;2023-04-03T07:06:58;4.80;99.90
15967;DHT22;15175;48.154;11.534;2023-04-03T07:09:25;4.70;99.90
15967;DHT22;15175;48.154;11.534;2023-04-03T07:11:52;4.80;99.90
15967;DHT22;15175;48.154;11.534;2023-04-03T07:14:19;4.80;99.90
15967;DHT22;15175;48.154;11.534;2023-04-03T07:16:48;4.90;99.90
15967;DHT22;15175;48.154;11.534;2023-04-03T07:19:15;4.90;99.90
15967;DHT22;15175;48.154;11.534;2023-04-03T07:21:43;4.90;99.90
15967;DHT22;15175;48.154;11.534;2023-04-03T07:24:11;5.00;99.90
15967;DHT22;15175;48.154;11.534;2023-04-03T07:26:38;5.00;99.90
15967;DHT22;15175;48.154;11.534;2023-04-03T07:29:05;5.10;99.90
15967;DHT22;15175;48.154;11.534;2023-04-03T07:31:32;5.10;99.90
15967;DHT22;15175;48.154;11.534;2023-04-03T07:34:00;5.10;99.90
15967;DHT22;15175;48.154;11.534;2023-04-03T07:36:27;5.20;99.90
15967;DHT22;15175;48.154;11.534;2023-04-03T07:38:56;5.20;99.90
15967;DHT22;15175;48.154;11.534;2023-04-03T07:41:23;5.20;99.90
15967;DHT22;15175;48.154;11.534;2023-04-03T07:43:50;5.20;99.90
15967;DHT22;15175;48.154;11.534;2023-04-03T07:46:17;5.10;99.90
15967;DHT22;15175;48.154;11.534;2023-04-03T07:48:44;5.10;99.90
15967;DHT22;15175;48.154;11.534;2023-04-03T07:51:13;5.10;99.90
15967;DHT22;15175;48.154;11.534;2023-04-03T07:53:40;5.00;99.90
15967;DHT22;15175;48.154;11.534;2023-04-03T07:56:08;5.00;99.90
15967;DHT22;15175;48.154;11.534;2023-04-03T07:58:35;4.90;99.90
15967;DHT22;15175;48.154;11.534;2023-04-03T08:01:03;4.90;99.90
15967;DHT22;15175;48.154;11.534;2023-04-03T08:03:30;4.90;99.90
15967;DHT22;15175;48.154;11.534;2023-04-03T08:06:03;4.90;99.90
15967;DHT22;15175;48.154;11.534;2023-04-03T08:08:32;4.90;99.90
15967;DHT22;15175;48.154;11.534;2023-04-03T08:11:00;4.90;99.90
15967;DHT22;15175;48.154;11.534;2023-04-03T08:13:28;5.00;99.90
15967;DHT22;15175;48.154;11.534;2023-04-03T08:15:56;5.00;99.90
15967;DHT22;15175;48.154;11.534;2023-04-03T08:18:25;5.00;99.90
15967;DHT22;15175;48.154;11.534;2023-04-03T08:20:52;4.90;99.90
15967;DHT22;15175;48.154;11.534;2023-04-03T08:23:19;4.90;99.90
15967;DHT22;15175;48.154;11.534;2023-04-03T08:25:48;4.90;99.90
15967;DHT22;15175;48.154;11.534;2023-04-03T08:28:15;4.90;99.90
15967;DHT22;15175;48.154;11.534;2023-04-03T08:30:42;5.00;99.90
15967;DHT22;15175;48.154;11.534;2023-04-03T08:33:10;5.10;99.90
15967;DHT22;15175;48.154;11.534;2023-04-03T08:35:38;5.10;99.90
15967;DHT22;15175;48.154;11.534;2023-04-03T08:38:06;5.20;99.90
15967;DHT22;15175;48.154;11.534;2023-04-03T08:40:33;5.20;99.90
15967;DHT22;15175;48.154;11.534;2023-04-03T08:43:17;5.20;99.90
15967;DHT22;15175;48.154;11.534;2023-04-03T08:45:52;5.30;99.90
15967;DHT22;15175;48.154;11.534;2023-04-03T08:48:24;5.40;99.90
15967;DHT22;15175;48.154;11.534;2023-04-03T08:50:56;5.40;99.90
15967;DHT22;15175;48.154;11.534;2023-04-03T08:53:27;5.40;99.90
15967;DHT22;15175;48.154;11.534;2023-04-03T08:55:58;5.40;99.90
15967;DHT22;15175;48.154;11.534;2023-04-03T08:58:29;5.40;99.90
15967;DHT22;15175;48.154;11.534;2023-04-03T09:01:00;5.30;99.90
15967;DHT22;15175;48.154;11.534;2023-04-03T09:03:31;5.30;99.90
15967;DHT22;15175;48.154;11.534;2023-04-03T09:06:02;5.30;99.90
15967;DHT22;15175;48.154;11.534;2023-04-03T09:08:32;5.20;99.90
15967;DHT22;15175;48.154;11.534;2023-04-03T09:11:07;5.20;99.90
15967;DHT22;15175;48.154;11.534;2023-04-03T09:13:44;5.20;99.90
15967;DHT22;15175;48.154;11.534;2023-04-03T09:16:22;5.20;99.90
15967;DHT22;15175;48.154;11.534;2023-04-03T09:18:54;5.30;99.90
15967;DHT22;15175;48.154;11.534;2023-04-03T09:21:29;5.30;99.90
15967;DHT22;15175;48.154;11.534;2023-04-03T09:23:59;5.30;99.90
15967;DHT22;15175;48.154;11.534;2023-04-03T09:26:31;5.30;99.90
15967;DHT22;15175;48.154;11.534;2023-04-03T09:29:06;5.40;99.90
15967;DHT22;15175;48.154;11.534;2023-04-03T09:31:37;5.50;99.90
15967;DHT22;15175;48.154;11.534;2023-04-03T09:34:10;5.70;99.90
15967;DHT22;15175;48.154;11.534;2023-04-03T09:36:41;5.80;99.90
15967;DHT22;15175;48.154;11.534;2023-04-03T09:39:12;5.70;99.90
15967;DHT22;15175;48.154;11.534;2023-04-03T09:41:40;5.80;99.90
15967;DHT22;15175;48.154;11.534;2023-04-03T09:44:21;5.90;99.90
15967;DHT22;15175;48.154;11.534;2023-04-03T09:46:49;5.90;99.90
15967;DHT22;15175;48.154;11.534;2023-04-03T09:49:17;5.90;99.90
15967;DHT22;15175;48.154;11.534;2023-04-03T09:51:45;5.90;99.90
15967;DHT22;15175;48.154;11.534;2023-04-03T09:54:33;5.90;99.90
15967;DHT22;15175;48.154;11.534;2023-04-03T09:57:07;6.00;99.90
15967;DHT22;15175;48.154;11.534;2023-04-03T09:59:37;6.10;99.90
15967;DHT22;15175;48.154;11.534;2023-04-03T10:02:22;6.10;99.90
15967;DHT22;15175;48.154;11.534;2023-04-03T10:04:50;6.20;99.90
15967;DHT22;15175;48.154;11.534;2023-04-03T10:07:27;6.10;99.90
15967;DHT22;15175;48.154;11.534;2023-04-03T10:09:56;6.10;99.90
15967;DHT22;15175;48.154;11.534;2023-04-03T10:12:24;6.00;99.90
15967;DHT22;15175;48.154;11.534;2023-04-03T10:14:58;6.10;99.90
15967;DHT22;15175;48.154;11.534;2023-04-03T10:17:49;6.00;99.90
15967;DHT22;15175;48.154;11.534;2023-04-03T10:20:33;5.80;99.90
15967;DHT22;15175;48.154;11.534;2023-04-03T10:23:16;5.60;99.90
15967;DHT22;15175;48.154;11.534;2023-04-03T10:25:53;5.70;99.90
15967;DHT22;15175;48.154;11.534;2023-04-03T10:28:25;5.80;99.90
15967;DHT22;15175;48.154;11.534;2023-04-03T10:31:00;5.70;99.90
15967;DHT22;15175;48.154;11.534;2023-04-03T10:33:43;5.70;99.90
15967;DHT22;15175;48.154;11.534;2023-04-03T10:36:18;5.60;99.90
15967;DHT22;15175;48.154;11.534;2023-04-03T10:38:53;5.50;99.90
15967;DHT22;15175;48.154;11.534;2023-04-03T10:41:31;5.50;99.90
15967;DHT22;15175;48.154;11.534;2023-04-03T10:44:12;5.40;99.90
15967;DHT22;15175;48.154;11.534;2023-04-03T10:46:45;5.50;99.90
15967;DHT22;15175;48.154;11.534;2023-04-03T10:49:25;5.50;99.90
15967;DHT22;15175;48.154;11.534;2023-04-03T10:52:00;5.40;99.90
15967;DHT22;15175;48.154;11.534;2023-04-03T10:54:34;5.50;99.90
15967;DHT22;15175;48.154;11.534;2023-04-03T10:57:07;5.40;99.90
15967;DHT22;15175;48.154;11.534;2023-04-03T10:59:38;5.40;99.90
15967;DHT22;15175;48.154;11.534;2023-04-03T11:02:17;5.30;99.90
15967;DHT22;15175;48.154;11.534;2023-04-03T11:04:50;5.10;99.90
15967;DHT22;15175;48.154;11.534;2023-04-03T11:07:21;5.20;99.90
15967;DHT22;15175;48.154;11.534;2023-04-03T11:09:51;5.20;99.90
15967;DHT22;15175;48.154;11.534;2023-04-03T11:12:24;5.20;99.90
15967;DHT22;15175;48.154;11.534;2023-04-03T11:14:53;5.20;99.90
15967;DHT22;15175;48.154;11.534;2023-04-03T11:17:28;5.10;99.90
15967;DHT22;15175;48.154;11.534;2023-04-03T11:20:03;5.10;99.90
15967;DHT22;15175;48.154;11.534;2023-04-03T11:22:35;5.10;99.90
15967;DHT22;15175;48.154;11.534;2023-04-03T11:25:06;5.10;99.90
15967;DHT22;15175;48.154;11.534;2023-04-03T11:27:43;5.10;99.90
15967;DHT22;15175;48.154;11.534;2023-04-03T11:30:16;5.10;99.90
15967;DHT22;15175;48.154;11.534;2023-04-03T11:33:10;5.10;99.90
15967;DHT22;15175;48.154;11.534;2023-04-03T11:35:43;5.10;99.90
15967;DHT22;15175;48.154;11.534;2023-04-03T11:38:19;5.30;99.90
15967;DHT22;15175;48.154;11.534;2023-04-03T11:40:49;5.30;99.90
15967;DHT22;15175;48.154;11.534;2023-04-03T11:43:22;5.50;99.90
15967;DHT22;15175;48.154;11.534;2023-04-03T11:45:54;5.50;99.90
15967;DHT22;15175;48.154;11.534;2023-04-03T11:48:46;5.50;99.90
15967;DHT22;15175;48.154;11.534;2023-04-03T11:54:50;5.60;99.90
15967;DHT22;15175;48.154;11.534;2023-04-03T12:00:47;5.60;99.90
15967;DHT22;15175;48.154;11.534;2023-04-03T12:12:56;6.10;99.90
15967;DHT22;15175;48.154;11.534;2023-04-03T12:15:50;6.10;99.90
15967;DHT22;15175;48.154;11.534;2023-04-03T12:18:40;6.20;99.90
15967;DHT22;15175;48.154;11.534;2023-04-03T12:21:08;6.20;99.90
15967;DHT22;15175;48.154;11.534;2023-04-03T12:23:36;6.20;99.90
15967;DHT22;15175;48.154;11.534;2023-04-03T12:26:08;6.30;99.90
15967;DHT22;15175;48.154;11.534;2023-04-03T12:28:46;6.30;99.90
15967;DHT22;15175;48.154;11.534;2023-04-03T12:31:15;6.50;99.90
15967;DHT22;15175;48.154;11.534;2023-04-03T12:34:01;6.60;99.90
15967;DHT22;15175;48.154;11.534;2023-04-03T12:36:38;6.60;99.90
15967;DHT22;15175;48.154;11.534;2023-04-03T12:39:20;6.60;99.90
15967;DHT22;15175;48.154;11.534;2023-04-03T12:41:55;6.60;99.90
15967;DHT22;15175;48.154;11.534;2023-04-03T12:44:45;6.70;99.90
15967;DHT22;15175;48.154;11.534;2023-04-03T12:47:28;6.80;99.90
15967;DHT22;15175;48.154;11.534;2023-04-03T12:49:55;7.00;99.90
15967;DHT22;15175;48.154;11.534;2023-04-03T12:52:32;7.00;99.90
15967;DHT22;15175;48.154;11.534;2023-04-03T12:55:00;7.10;99.90
15967;DHT22;15175;48.154;11.534;2023-04-03T12:57:30;7.20;99.90
15967;DHT22;15175;48.154;11.534;2023-04-03T12:59:59;7.00;99.90
15967;DHT22;15175;48.154;11.534;2023-04-03T13:02:29;6.90;99.90
15967;DHT22;15175;48.154;11.534;2023-04-03T13:04:58;6.90;99.90
15967;DHT22;15175;48.154;11.534;2023-04-03T13:07:29;6.90;99.90
15967;DHT22;15175;48.154;11.534;2023-04-03T13:10:03;7.00;99.90
15967;DHT22;15175;48.154;11.534;2023-04-03T13:12:31;7.00;99.90
15967;DHT22;15175;48.154;11.534;2023-04-03T13:15:02;7.10;99.90
15967;DHT22;15175;48.154;11.534;2023-04-03T13:17:31;7.10;99.90
15967;DHT22;15175;48.154;11.534;2023-04-03T13:20:13;7.20;99.90
15967;DHT22;15175;48.154;11.534;2023-04-03T13:22:50;7.30;99.90
15967;DHT22;15175;48.154;11.534;2023-04-03T13:25:21;7.40;99.90
15967;DHT22;15175;48.154;11.534;2023-04-03T13:27:49;7.50;99.90
15967;DHT22;15175;48.154;11.534;2023-04-03T13:30:37;7.70;99.90
15967;DHT22;15175;48.154;11.534;2023-04-03T13:33:06;7.70;99.90
15967;DHT22;15175;48.154;11.534;2023-04-03T13:35:44;7.50;99.90
15967;DHT22;15175;48.154;11.534;2023-04-03T13:38:23;7.50;99.90
15967;DHT22;15175;48.154;11.534;2023-04-03T13:40:53;7.50;99.90
15967;DHT22;15175;48.154;11.534;2023-04-03T13:43:24;7.50;99.90
15967;DHT22;15175;48.154;11.534;2023-04-03T13:46:03;7.30;99.90
15967;DHT22;15175;48.154;11.534;2023-04-03T13:48:36;7.30;99.90
15967;DHT22;15175;48.154;11.534;2023-04-03T13:51:05;7.20;99.90
15967;DHT22;15175;48.154;11.534;2023-04-03T13:53:40;7.10;99.90
15967;DHT22;15175;48.154;11.534;2023-04-03T13:56:13;7.00;99.90
15967;DHT22;15175;48.154;11.534;2023-04-03T13:59:04;6.90;99.90
15967;DHT22;15175;48.154;11.534;2023-04-03T14:01:45;7.00;99.90
15967;DHT22;15175;48.154;11.534;2023-04-03T14:04:17;6.90;99.90
15967;DHT22;15175;48.154;11.534;2023-04-03T14:06:45;6.90;99.90
15967;DHT22;15175;48.154;11.534;2023-04-03T14:09:13;6.70;99.90
15967;DHT22;15175;48.154;11.534;2023-04-03T14:11:41;6.60;99.90
15967;DHT22;15175;48.154;11.534;2023-04-03T14:14:14;6.60;99.90
15967;DHT22;15175;48.154;11.534;2023-04-03T14:16:45;6.60;99.90
15967;DHT22;15175;48.154;11.534;2023-04-03T14:19:20;6.60;99.90
15967;DHT22;15175;48.154;11.534;2023-04-03T14:21:48;6.80;99.90
15967;DHT22;15175;48.154;11.534;2023-04-03T14:24:16;6.90;99.90
15967;DHT22;15175;48.154;11.534;2023-04-03T14:26:45;7.00;99.90
15967;DHT22;15175;48.154;11.534;2023-04-03T14:29:14;7.20;99.90
15967;DHT22;15175;48.154;11.534;2023-04-03T14:31:44;7.30;99.90
15967;DHT22;15175;48.154;11.534;2023-04-03T14:34:12;7.40;99.90
15967;DHT22;15175;48.154;11.534;2023-04-03T14:36:39;7.40;99.90
15967;DHT22;15175;48.154;11.534;2023-04-03T14:39:10;7.50;99.90
15967;DHT22;15175;48.154;11.534;2023-04-03T14:41:37;7.60;99.90
15967;DHT22;15175;48.154;11.534;2023-04-03T14:44:04;7.60;99.90
15967;DHT22;15175;48.154;11.534;2023-04-03T14:46:35;7.70;99.90
15967;DHT22;15175;48.154;11.534;2023-04-03T14:49:05;7.70;99.90
15967;DHT22;15175;48.154;11.534;2023-04-03T14:51:37;7.80;99.90
15967;DHT22;15175;48.154;11.534;2023-04-03T14:54:05;7.80;99.90
15967;DHT22;15175;48.154;11.534;2023-04-03T14:56:34;7.80;99.60
15967;DHT22;15175;48.154;11.534;2023-04-03T14:59:02;7.80;99.80
15967;DHT22;15175;48.154;11.534;2023-04-03T15:01:29;7.80;99.70
15967;DHT22;15175;48.154;11.534;2023-04-03T15:03:56;7.80;99.60
15967;DHT22;15175;48.154;11.534;2023-04-03T15:06:25;7.80;99.30
15967;DHT22;15175;48.154;11.534;2023-04-03T15:08:52;7.70;98.60
15967;DHT22;15175;48.154;11.534;2023-04-03T15:11:19;7.70;98.60
15967;DHT22;15175;48.154;11.534;2023-04-03T15:13:46;7.60;98.30
15967;DHT22;15175;48.154;11.534;2023-04-03T15:16:17;7.60;98.70
15967;DHT22;15175;48.154;11.534;2023-04-03T15:18:45;7.50;97.80
15967;DHT22;15175;48.154;11.534;2023-04-03T15:21:14;7.40;97.70
15967;DHT22;15175;48.154;11.534;2023-04-03T15:23:42;7.30;97.70
15967;DHT22;15175;48.154;11.534;2023-04-03T15:26:09;7.20;98.00
15967;DHT22;15175;48.154;11.534;2023-04-03T15:28:38;7.10;97.60
15967;DHT22;15175;48.154;11.534;2023-04-03T15:31:06;7.10;97.20
15967;DHT22;15175;48.154;11.534;2023-04-03T15:33:34;7.00;97.50
15967;DHT22;15175;48.154;11.534;2023-04-03T15:36:02;7.10;97.40
15967;DHT22;15175;48.154;11.534;2023-04-03T15:38:30;6.90;96.60
15967;DHT22;15175;48.154;11.534;2023-04-03T15:40:58;7.00;96.70
15967;DHT22;15175;48.154;11.534;2023-04-03T15:43:25;6.80;96.80
15967;DHT22;15175;48.154;11.534;2023-04-03T15:45:56;7.00;97.00
15967;DHT22;15175;48.154;11.534;2023-04-03T15:48:24;7.10;97.10
15967;DHT22;15175;48.154;11.534;2023-04-03T15:50:51;7.10;96.50
15967;DHT22;15175;48.154;11.534;2023-04-03T15:53:18;7.10;96.70
15967;DHT22;15175;48.154;11.534;2023-04-03T15:55:45;7.10;96.70
15967;DHT22;15175;48.154;11.534;2023-04-03T15:58:14;7.10;96.60
15967;DHT22;15175;48.154;11.534;2023-04-03T16:00:41;7.00;95.90
15967;DHT22;15175;48.154;11.534;2023-04-03T16:03:10;6.90;95.40
15967;DHT22;15175;48.154;11.534;2023-04-03T16:05:39;6.90;95.60
15967;DHT22;15175;48.154;11.534;2023-04-03T16:08:07;6.90;96.10
15967;DHT22;15175;48.154;11.534;2023-04-03T16:10:34;6.80;96.40